Time;durP1;ratioP1;P1;durP2;ratioP2;P2;SDS_P1;SDS_P2;PMS_P1;PMS_P2;Temp;Humidity;BMP_temperature;BMP_pressure;BME280_temperature;BME280_humidity;BME280_pressure;Samples;Min_cycle;Max_cycle;Signal;HPM_P1;HPM_P2
2021/10/08 00:00:51;;;;;;;4.50;3.42;;;;;;;21.14;53.68;101772.90;1792717;79;21026;-51
2021/10/08 00:03:17;;;;;;;4.53;3.30;;;;;;;21.14;53.69;101785.35;1794877;79;21097;-51
2021/10/08 00:05:43;;;;;;;4.60;3.75;;;;;;;21.14;53.69;101773.45;1796172;79;22519;-50
2021/10/08 00:08:09;;;;;;;4.92;3.02;;;;;;;21.13;53.67;101780.14;1797066;79;20863;-51
2021/10/08 00:10:35;;;;;;;5.58;3.30;;;;;;;21.13;53.67;101777.38;1788015;79;21072;-50
2021/10/08 00:13:02;;;;;;;5.40;3.58;;;;;;;21.13;53.67;101782.31;1792101;79;21010;-51
2021/10/08 00:15:28;;;;;;;5.17;3.47;;;;;;;21.12;53.67;101782.08;1794788;79;21042;-52
2021/10/08 00:17:54;;;;;;;5.37;3.62;;;;;;;21.12;53.69;101784.84;1792762;78;21301;-51
2021/10/08 00:20:20;;;;;;;5.75;3.70;;;;;;;21.12;53.66;101776.55;1788936;79;21199;-52
2021/10/08 00:22:46;;;;;;;6.08;3.40;;;;;;;21.12;53.66;101780.69;1787519;79;21056;-49
2021/10/08 00:25:12;;;;;;;4.83;3.27;;;;;;;21.12;53.66;101772.91;1785805;79;21019;-51
2021/10/08 00:27:38;;;;;;;4.60;3.10;;;;;;;21.12;53.65;101779.83;1794342;79;21710;-48
2021/10/08 00:30:06;;;;;;;5.75;3.60;;;;;;;21.11;53.65;101775.41;1794515;78;21290;-50
2021/10/08 00:32:32;;;;;;;4.58;3.37;;;;;;;21.11;53.65;101775.41;1792219;78;20979;-47
2021/10/08 00:34:58;;;;;;;4.97;3.80;;;;;;;21.11;53.66;101785.09;1771719;79;21373;-52
2021/10/08 00:37:24;;;;;;;4.45;3.40;;;;;;;21.11;53.65;101774.03;1782293;79;21077;-51
2021/10/08 00:39:50;;;;;;;4.33;2.90;;;;;;;21.11;53.64;101767.11;1775173;79;21647;-52
2021/10/08 00:42:20;;;;;;;4.65;3.45;;;;;;;21.10;53.65;101778.73;1791818;78;21301;-51
2021/10/08 00:44:46;;;;;;;4.87;3.25;;;;;;;21.10;53.65;101768.23;1790581;79;20927;-51
2021/10/08 00:47:15;;;;;;;5.42;3.00;;;;;;;21.10;53.65;101765.45;1784921;79;21256;-48
2021/10/08 00:49:41;;;;;;;4.25;3.08;;;;;;;21.09;53.63;101770.75;1789882;79;21026;-50
2021/10/08 00:52:07;;;;;;;5.65;3.10;;;;;;;21.08;53.64;101767.16;1792467;79;20915;-50
2021/10/08 00:54:33;;;;;;;4.15;3.02;;;;;;;21.09;53.64;101779.05;1786634;79;21208;-52
2021/10/08 00:56:59;;;;;;;4.75;2.98;;;;;;;21.07;53.63;101771.04;1765348;79;21731;-52
2021/10/08 00:59:27;;;;;;;5.08;3.65;;;;;;;21.07;53.64;101757.20;1773129;79;21580;-51
2021/10/08 01:01:53;;;;;;;4.85;3.17;;;;;;;21.07;53.64;101764.12;1776462;79;21057;-51
2021/10/08 01:04:19;;;;;;;5.72;3.00;;;;;;;21.08;53.66;101753.88;1778483;79;20910;-49
2021/10/08 01:06:46;;;;;;;5.78;3.62;;;;;;;21.06;53.68;101758.31;1776104;79;21094;-51
2021/10/08 01:09:12;;;;;;;5.45;3.10;;;;;;;21.05;53.66;101751.72;1796498;78;21040;-51
2021/10/08 01:11:38;;;;;;;4.58;2.90;;;;;;;21.07;53.68;101756.38;1788122;78;21005;-49
2021/10/08 01:14:04;;;;;;;4.42;3.02;;;;;;;21.05;53.68;101748.36;1773824;78;22062;-51
2021/10/08 01:16:30;;;;;;;5.60;3.08;;;;;;;21.05;53.66;101748.36;1801816;78;21126;-48
2021/10/08 01:18:56;;;;;;;3.83;2.85;;;;;;;21.05;53.66;101744.22;1792270;78;21158;-49
2021/10/08 01:21:22;;;;;;;3.90;2.77;;;;;;;21.04;53.67;101739.00;1791821;79;21025;-50
2021/10/08 01:23:48;;;;;;;6.30;3.33;;;;;;;21.04;53.69;101745.91;1760753;79;20902;-51
2021/10/08 01:26:15;;;;;;;5.25;3.20;;;;;;;21.03;53.68;101744.27;1774654;79;21241;-52
2021/10/08 01:28:41;;;;;;;4.53;3.10;;;;;;;21.03;53.70;101750.62;1778866;79;21005;-49
2021/10/08 01:31:07;;;;;;;4.75;3.25;;;;;;;21.03;53.68;101744.27;1781467;79;21620;-51
2021/10/08 01:33:33;;;;;;;4.42;2.87;;;;;;;21.02;53.71;101743.99;1778358;79;21052;-50
2021/10/08 01:35:59;;;;;;;4.42;2.80;;;;;;;21.02;53.70;101748.97;1778162;79;21715;-48
2021/10/08 01:38:25;;;;;;;5.05;3.20;;;;;;;21.02;53.72;101749.52;1778308;79;20881;-51
2021/10/08 01:40:51;;;;;;;4.12;2.83;;;;;;;21.01;53.71;101750.08;1782198;79;21668;-49
2021/10/08 01:43:17;;;;;;;5.30;2.98;;;;;;;21.00;53.70;101746.25;1790452;79;22010;-51
2021/10/08 01:45:43;;;;;;;5.05;2.60;;;;;;;20.98;53.71;101744.59;1785075;78;21084;-51
2021/10/08 01:48:10;;;;;;;4.20;2.75;;;;;;;21.00;53.70;101755.94;1778033;79;22726;-49
2021/10/08 01:50:36;;;;;;;4.22;2.72;;;;;;;20.98;53.74;101757.05;1774913;79;21087;-51
2021/10/08 01:53:02;;;;;;;5.37;3.00;;;;;;;20.98;53.73;101770.88;1772936;79;21133;-51
2021/10/08 01:55:28;;;;;;;7.05;2.80;;;;;;;20.98;53.74;101754.28;1793798;79;21447;-51
2021/10/08 01:57:54;;;;;;;4.47;2.70;;;;;;;20.96;53.72;101752.36;1783690;79;20964;-49
2021/10/08 02:00:20;;;;;;;4.12;2.85;;;;;;;20.96;53.74;101759.27;1786760;80;20892;-52
2021/10/08 02:02:46;;;;;;;6.53;3.35;;;;;;;20.96;53.72;101763.42;1784624;79;21543;-51
2021/10/08 02:05:12;;;;;;;3.90;2.77;;;;;;;20.95;53.75;101764.56;1785002;80;20953;-52
2021/10/08 02:07:38;;;;;;;3.85;3.08;;;;;;;20.95;53.76;101768.72;1784814;80;21470;-49
2021/10/08 02:10:05;;;;;;;4.33;2.58;;;;;;;20.95;53.76;101776.19;1784683;80;20954;-52
2021/10/08 02:12:31;;;;;;;5.40;3.27;;;;;;;20.95;53.77;101770.66;1786621;78;21023;-48
2021/10/08 02:14:57;;;;;;;4.72;2.75;;;;;;;20.95;53.77;101772.03;1786926;79;21050;-50
2021/10/08 02:17:23;;;;;;;4.10;3.00;;;;;;;20.95;53.77;101775.63;1785591;80;20931;-53
2021/10/08 02:19:49;;;;;;;5.78;2.60;;;;;;;20.94;53.78;101769.00;1787298;78;21041;-52
2021/10/08 02:22:15;;;;;;;3.47;2.72;;;;;;;20.94;53.77;101774.53;1801980;78;20929;-52
2021/10/08 02:24:42;;;;;;;6.45;3.00;;;;;;;20.93;53.79;101768.73;1774589;79;21098;-50
2021/10/08 02:27:08;;;;;;;6.12;3.15;;;;;;;20.92;53.75;101769.84;1779445;79;21107;-51
2021/10/08 02:29:34;;;;;;;5.47;2.70;;;;;;;20.92;53.78;101774.81;1777155;79;20883;-50
2021/10/08 02:32:00;;;;;;;4.40;3.12;;;;;;;20.91;53.77;101780.11;1774837;79;21052;-50
2021/10/08 02:34:26;;;;;;;3.83;2.55;;;;;;;20.91;53.76;101783.44;1773113;79;21736;-53
2021/10/08 02:36:52;;;;;;;4.03;2.30;;;;;;;20.91;53.75;101785.64;1769841;79;21011;-51
2021/10/08 02:39:18;;;;;;;4.80;2.60;;;;;;;20.91;53.78;101787.02;1766740;79;20932;-51
2021/10/08 02:41:44;;;;;;;4.90;2.80;;;;;;;20.90;53.77;101784.55;1763798;79;21031;-52
2021/10/08 02:44:10;;;;;;;5.80;2.80;;;;;;;20.88;53.76;101787.59;1773371;79;21288;-51
2021/10/08 02:46:36;;;;;;;4.97;2.60;;;;;;;20.89;53.76;101785.66;1769043;79;20998;-52
2021/10/08 02:49:02;;;;;;;3.87;2.58;;;;;;;20.88;53.77;101779.85;1774780;79;20914;-49
2021/10/08 02:51:33;;;;;;;5.47;2.72;;;;;;;20.87;53.76;101783.20;1771027;79;21114;-50
2021/10/08 02:53:57;;;;;;;4.55;2.83;;;;;;;20.87;53.77;101783.20;1778941;79;21492;-50
2021/10/08 02:56:23;;;;;;;3.90;3.10;;;;;;;20.88;53.76;101788.15;1762037;79;21296;-51
2021/10/08 02:58:49;;;;;;;3.95;2.70;;;;;;;20.87;53.77;101790.67;1774553;79;21597;-50
2021/10/08 03:01:15;;;;;;;4.37;2.55;;;;;;;20.87;53.76;101790.67;1770448;79;20931;-53
2021/10/08 03:03:44;;;;;;;4.40;2.77;;;;;;;20.86;53.77;101793.17;1738398;80;21030;-50
2021/10/08 03:06:10;;;;;;;4.55;2.47;;;;;;;20.86;53.77;101788.47;1776711;78;21002;-50
2021/10/08 03:08:36;;;;;;;4.97;2.60;;;;;;;20.86;53.78;101785.70;1776419;78;21619;-48
2021/10/08 03:11:02;;;;;;;3.85;2.52;;;;;;;20.88;53.78;101790.36;1769371;79;21068;-48
2021/10/08 03:13:29;;;;;;;3.98;2.45;;;;;;;20.90;53.77;101803.91;1772830;79;20936;-50
2021/10/08 03:15:55;;;;;;;2.85;2.05;;;;;;;20.92;53.78;101801.09;1771874;79;21071;-50
2021/10/08 03:18:21;;;;;;;5.00;2.83;;;;;;;20.96;53.77;101805.50;1775587;79;21219;-51
2021/10/08 03:20:47;;;;;;;3.15;2.20;;;;;;;21.00;53.75;101808.50;1771433;79;21979;-51
2021/10/08 03:23:13;;;;;;;6.03;2.37;;;;;;;21.04;53.76;101820.63;1768277;79;20908;-52
2021/10/08 03:25:39;;;;;;;4.58;2.27;;;;;;;21.08;53.74;101811.98;1765874;80;21093;-50
2021/10/08 03:28:06;;;;;;;3.55;2.05;;;;;;;21.12;53.72;101818.58;1764305;79;20924;-49
2021/10/08 03:30:32;;;;;;;3.42;2.12;;;;;;;21.14;53.70;101817.73;1746116;80;21108;-50
2021/10/08 03:32:58;;;;;;;3.98;1.90;;;;;;;21.16;53.71;101820.48;1759997;81;21342;-51
2021/10/08 03:35:24;;;;;;;2.98;1.92;;;;;;;21.20;53.68;101820.70;1766364;80;21075;-54
2021/10/08 03:37:53;;;;;;;2.70;1.55;;;;;;;21.22;53.67;101816.52;1764338;80;21139;-47
2021/10/08 03:40:27;;;;;;;4.70;1.60;;;;;;;21.26;53.68;101816.17;1765857;81;21059;-51
2021/10/08 03:42:52;;;;;;;2.40;1.50;;;;;;;21.27;53.67;101817.00;1763149;80;21052;-51
2021/10/08 03:45:19;;;;;;;3.50;1.75;;;;;;;21.30;53.65;101817.81;1765800;80;21953;-50
2021/10/08 03:48:04;;;;;;;3.27;1.90;;;;;;;21.32;53.64;101817.77;1768052;80;21059;-51
2021/10/08 03:50:22;;;;;;;2.83;1.67;;;;;;;21.36;53.62;101809.69;1789521;79;21410;-48
2021/10/08 03:52:48;;;;;;;3.70;1.40;;;;;;;21.38;53.62;101806.07;1800557;79;21470;-52
2021/10/08 03:55:14;;;;;;;3.75;2.00;;;;;;;21.41;53.61;101819.30;1796964;79;21050;-49
2021/10/08 03:57:40;;;;;;;7.17;1.90;;;;;;;21.43;53.59;101807.95;1802739;77;21315;-49
2021/10/08 04:00:08;;;;;;;3.05;1.60;;;;;;;21.44;53.60;101811.78;1798588;79;20951;-51
2021/10/08 04:02:34;;;;;;;3.65;1.75;;;;;;;21.47;53.60;101812.59;1795929;77;21101;-51
2021/10/08 04:05:00;;;;;;;4.25;1.70;;;;;;;21.50;53.59;101816.13;1797690;77;20944;-52
2021/10/08 04:07:27;;;;;;;2.10;1.40;;;;;;;21.51;53.60;101816.41;1801944;79;20986;-51
2021/10/08 04:09:53;;;;;;;2.83;1.77;;;;;;;21.53;53.59;101819.67;1800696;79;21574;-51
2021/10/08 04:12:19;;;;;;;3.08;1.70;;;;;;;21.55;53.57;101821.60;1804048;79;20895;-51
2021/10/08 04:14:45;;;;;;;4.25;1.70;;;;;;;21.57;53.58;101815.19;1738016;81;21048;-51
2021/10/08 04:17:11;;;;;;;4.83;1.72;;;;;;;21.59;53.58;101817.11;1740490;81;21622;-50
2021/10/08 04:19:37;;;;;;;3.00;1.60;;;;;;;21.62;53.57;101822.59;1766272;80;21067;-52
2021/10/08 04:22:03;;;;;;;3.75;1.57;;;;;;;21.63;53.57;101824.25;1775029;79;21328;-51
2021/10/08 04:24:29;;;;;;;4.70;2.00;;;;;;;21.65;53.57;101824.75;1783353;79;21596;-50
2021/10/08 04:26:55;;;;;;;2.85;1.40;;;;;;;21.67;53.56;101821.97;1777199;79;20940;-51
2021/10/08 04:29:21;;;;;;;4.33;1.70;;;;;;;21.69;53.55;101817.49;1776774;79;21503;-53
2021/10/08 04:31:47;;;;;;;2.72;1.50;;;;;;;21.70;53.53;101832.44;1774826;79;20908;-51
2021/10/08 04:34:13;;;;;;;3.20;1.90;;;;;;;21.72;53.55;101821.89;1769817;79;21126;-50
2021/10/08 04:36:40;;;;;;;3.67;1.77;;;;;;;21.74;53.55;101816.86;1776146;79;21753;-51
2021/10/08 04:39:07;;;;;;;4.75;1.70;;;;;;;21.76;53.55;101818.78;1790878;79;21105;-52
2021/10/08 04:41:33;;;;;;;4.17;1.80;;;;;;;21.78;53.55;101813.75;1791172;79;21065;-51
2021/10/08 04:43:59;;;;;;;3.15;1.55;;;;;;;21.79;53.52;101814.02;1795334;77;20870;-50
2021/10/08 04:46:25;;;;;;;2.22;1.55;;;;;;;21.81;53.51;101821.45;1793654;79;21969;-53
2021/10/08 04:48:51;;;;;;;2.87;1.60;;;;;;;21.83;53.51;101820.59;1795977;77;20891;-53
2021/10/08 04:51:17;;;;;;;2.62;1.52;;;;;;;21.84;53.51;101825.02;1788845;79;20911;-52
2021/10/08 04:53:43;;;;;;;3.65;2.00;;;;;;;21.87;53.51;101823.58;1796342;78;20915;-50
2021/10/08 04:56:09;;;;;;;4.25;1.90;;;;;;;21.88;53.47;101828.83;1787775;78;20923;-52
2021/10/08 04:58:35;;;;;;;3.15;1.87;;;;;;;21.90;53.46;101830.48;1791395;79;21339;-53
2021/10/08 05:01:02;;;;;;;4.30;2.00;;;;;;;21.91;53.44;101832.11;1791030;79;22695;-55
2021/10/08 05:03:29;;;;;;;6.22;1.90;;;;;;;21.92;53.42;101832.38;1796038;79;21528;-50
2021/10/08 05:05:55;;;;;;;7.20;3.62;;;;;;;21.94;53.40;101831.56;1795107;79;21137;-53
2021/10/08 05:08:21;;;;;;;11.10;2.62;;;;;;;21.95;53.40;101835.95;1793269;78;21118;-51
2021/10/08 05:10:47;;;;;;;9.35;3.50;;;;;;;21.96;53.38;101835.66;1792439;79;21972;-53
2021/10/08 05:13:14;;;;;;;37.17;12.20;;;;;;;21.98;53.38;101828.44;1793572;79;21611;-55
2021/10/08 05:15:40;;;;;;;10.95;3.00;;;;;;;21.99;53.37;101827.30;1793025;77;21068;-55
2021/10/08 05:18:06;;;;;;;4.55;2.37;;;;;;;22.00;53.35;101824.79;1796594;79;21509;-52
2021/10/08 05:20:32;;;;;;;6.70;2.00;;;;;;;22.01;53.33;101827.83;1790316;79;20976;-54
2021/10/08 05:22:58;;;;;;;7.72;1.92;;;;;;;22.02;53.30;101822.55;1790004;79;21147;-52
2021/10/08 05:25:24;;;;;;;13.00;3.72;;;;;;;22.02;53.25;101829.48;1796827;79;21117;-52
2021/10/08 05:27:50;;;;;;;20.08;7.42;;;;;;;22.03;53.27;101825.56;1786335;79;21121;-55
2021/10/08 05:30:16;;;;;;;11.70;4.05;;;;;;;22.03;53.24;101811.70;1791674;79;20872;-54
2021/10/08 05:32:43;;;;;;;12.78;3.77;;;;;;;22.04;53.23;101813.36;1796895;77;20870;-56
2021/10/08 05:35:10;;;;;;;6.50;2.45;;;;;;;22.03;53.20;101813.09;1788856;79;22032;-51
2021/10/08 05:37:36;;;;;;;12.23;4.03;;;;;;;22.04;53.19;101810.59;1795247;79;22262;-56
2021/10/08 05:40:04;;;;;;;13.80;4.67;;;;;;;22.03;53.17;101815.86;1797725;79;21143;-53
2021/10/08 05:42:30;;;;;;;10.10;3.25;;;;;;;22.03;53.16;101812.53;1794572;79;21011;-48
2021/10/08 05:44:56;;;;;;;14.55;5.65;;;;;;;22.02;53.16;101817.84;1795175;79;21069;-51
2021/10/08 05:47:22;;;;;;;35.90;12.65;;;;;;;22.02;53.16;101817.02;1793753;78;22653;-52
2021/10/08 05:49:48;;;;;;;19.52;6.15;;;;;;;22.02;53.15;101819.78;1787980;77;21061;-54
2021/10/08 05:52:14;;;;;;;5.25;2.55;;;;;;;22.02;53.15;101819.22;1791393;79;20910;-51
2021/10/08 05:54:41;;;;;;;8.38;3.15;;;;;;;22.02;53.15;101817.02;1796855;79;20908;-52
2021/10/08 05:57:08;;;;;;;6.67;2.90;;;;;;;22.02;53.15;101822.55;1790153;79;21010;-51
2021/10/08 05:59:35;;;;;;;7.20;2.60;;;;;;;22.01;53.14;101822.28;1793161;79;21456;-50
2021/10/08 06:02:01;;;;;;;26.75;8.80;;;;;;;22.01;53.14;101817.57;1796699;79;21093;-50
2021/10/08 06:04:27;;;;;;;13.22;4.92;;;;;;;22.00;53.15;101822.84;1791217;79;21025;-47
2021/10/08 06:06:53;;;;;;;7.42;2.98;;;;;;;21.99;53.15;101822.58;1791600;77;20856;-48
2021/10/08 06:09:20;;;;;;;4.85;2.35;;;;;;;21.99;53.13;101818.42;1792215;79;20990;-51
2021/10/08 06:11:46;;;;;;;4.40;2.02;;;;;;;21.98;53.13;101817.36;1791936;79;21239;-48
2021/10/08 06:14:12;;;;;;;4.42;1.95;;;;;;;21.97;53.16;101819.30;1789084;79;21344;-54
2021/10/08 06:16:38;;;;;;;4.62;2.42;;;;;;;21.99;53.17;101823.96;1789748;79;21141;-55
2021/10/08 06:19:04;;;;;;;5.97;2.50;;;;;;;22.00;53.17;101827.56;1794602;79;21496;-55
2021/10/08 06:21:30;;;;;;;5.90;2.00;;;;;;;22.00;53.15;101825.61;1789938;79;20891;-58
2021/10/08 06:23:56;;;;;;;2.55;1.42;;;;;;;22.01;53.15;101836.14;1791922;77;21260;-57
2021/10/08 06:26:22;;;;;;;9.03;2.65;;;;;;;22.03;53.13;101833.31;1794681;79;20926;-56
2021/10/08 06:28:48;;;;;;;9.25;2.95;;;;;;;22.07;53.11;101846.00;1792825;79;20982;-53
2021/10/08 06:31:14;;;;;;;9.23;3.30;;;;;;;22.12;53.06;101847.30;1792167;79;21276;-56
2021/10/08 06:33:40;;;;;;;21.55;5.08;;;;;;;22.14;52.98;101851.44;1791443;78;21073;-55
2021/10/08 06:36:06;;;;;;;24.23;5.15;;;;;;;22.16;52.94;101854.72;1783692;79;23275;-54
2021/10/08 06:38:32;;;;;;;23.18;6.12;;;;;;;22.16;52.89;101849.17;1787566;79;21058;-55
2021/10/08 06:40:58;;;;;;;14.07;4.62;;;;;;;22.18;52.88;101851.09;1791880;79;21050;-55
2021/10/08 06:43:24;;;;;;;18.70;5.40;;;;;;;22.18;52.85;101859.97;1791379;79;21003;-55
2021/10/08 06:45:50;;;;;;;20.60;5.75;;;;;;;22.18;52.82;101858.02;1785074;79;21088;-56
2021/10/08 06:48:16;;;;;;;16.55;5.72;;;;;;;22.16;52.83;101851.94;1786820;79;22540;-55
2021/10/08 06:50:42;;;;;;;22.05;6.58;;;;;;;22.16;52.83;101861.64;1795149;79;20931;-55
2021/10/08 06:53:09;;;;;;;18.90;5.00;;;;;;;22.17;52.80;101861.08;1786957;79;20965;-55
2021/10/08 06:55:36;;;;;;;20.15;5.85;;;;;;;22.19;52.81;101861.63;1789985;79;21603;-56
2021/10/08 06:58:04;;;;;;;16.87;5.80;;;;;;;22.20;52.77;101861.85;1790309;79;21113;-56
2021/10/08 07:00:30;;;;;;;17.67;6.20;;;;;;;22.20;52.76;101857.14;1789377;79;21108;-56
2021/10/08 07:02:57;;;;;;;21.00;6.05;;;;;;;22.21;52.73;101855.19;1784817;79;21472;-56
2021/10/08 07:05:24;;;;;;;19.50;5.90;;;;;;;22.20;52.69;101842.45;1793210;79;21057;-56
2021/10/08 07:07:51;;;;;;;21.40;7.97;;;;;;;22.20;52.68;101839.12;1790403;79;21121;-56
2021/10/08 07:10:17;;;;;;;16.12;5.87;;;;;;;22.20;52.66;101832.19;1789144;79;21533;-55
2021/10/08 07:12:44;;;;;;;17.62;5.45;;;;;;;22.21;52.65;101835.79;1797401;79;21203;-55
2021/10/08 07:15:17;;;;;;;18.32;6.08;;;;;;;22.21;52.65;101848.27;1791136;79;21967;-56
2021/10/08 07:17:48;;;;;;;17.27;5.42;;;;;;;22.22;52.62;101833.28;1788324;78;21108;-55
2021/10/08 07:20:18;;;;;;;16.20;5.50;;;;;;;22.23;52.62;101840.48;1788997;79;21092;-56
2021/10/08 07:22:44;;;;;;;20.20;5.72;;;;;;;22.23;52.58;101839.09;1785769;79;21062;-56
2021/10/08 07:25:10;;;;;;;14.33;5.20;;;;;;;22.23;52.53;101848.80;1788696;79;22079;-56
2021/10/08 07:27:36;;;;;;;14.95;5.35;;;;;;;22.24;52.50;101855.97;1792939;79;21085;-56
2021/10/08 07:30:04;;;;;;;17.30;5.28;;;;;;;22.23;52.45;101851.01;1785885;79;21466;-56
2021/10/08 07:32:31;;;;;;;13.90;4.65;;;;;;;22.23;52.43;101852.39;1787280;79;21551;-55
2021/10/08 07:34:57;;;;;;;13.72;5.15;;;;;;;22.22;52.39;101847.97;1792841;79;20987;-55
2021/10/08 07:37:24;;;;;;;15.40;5.00;;;;;;;22.22;52.37;101856.84;1786506;78;21864;-55
2021/10/08 07:39:50;;;;;;;13.60;4.97;;;;;;;22.23;52.37;101853.78;1791677;79;21113;-55
2021/10/08 07:42:16;;;;;;;15.40;4.67;;;;;;;22.23;52.36;101857.11;1789692;79;21010;-55
2021/10/08 07:44:42;;;;;;;15.95;5.15;;;;;;;22.24;52.31;101849.03;1790656;79;20970;-56
2021/10/08 07:47:08;;;;;;;16.67;5.62;;;;;;;22.24;52.27;101856.79;1790074;79;20895;-56
2021/10/08 07:49:34;;;;;;;15.28;4.92;;;;;;;22.24;52.23;101855.97;1789861;79;21133;-56
2021/10/08 07:52:00;;;;;;;15.40;4.67;;;;;;;22.24;52.18;101851.80;1788920;79;20872;-55
2021/10/08 07:54:26;;;;;;;13.58;4.72;;;;;;;22.24;52.12;101851.80;1786070;79;21593;-56
2021/10/08 07:56:52;;;;;;;12.43;5.00;;;;;;;22.23;52.09;101850.19;1788117;79;21082;-56
2021/10/08 07:59:18;;;;;;;12.50;4.53;;;;;;;22.24;52.05;101857.35;1790578;79;21733;-56
2021/10/08 08:01:46;;;;;;;11.03;4.60;;;;;;;22.23;52.04;101848.23;1794845;79;21182;-56
2021/10/08 08:04:12;;;;;;;12.90;4.33;;;;;;;22.25;52.02;101853.45;1788999;79;21026;-56
2021/10/08 08:06:38;;;;;;;13.45;4.50;;;;;;;22.26;51.97;101856.50;1783746;79;21757;-55
2021/10/08 08:09:04;;;;;;;14.60;4.60;;;;;;;22.25;51.92;101859.00;1795379;78;20884;-56
2021/10/08 08:11:30;;;;;;;15.25;4.65;;;;;;;22.25;51.87;101852.90;1795008;79;21050;-56
2021/10/08 08:13:56;;;;;;;14.98;4.45;;;;;;;22.25;51.81;101866.76;1793740;79;21884;-55
2021/10/08 08:16:22;;;;;;;12.88;4.78;;;;;;;22.24;51.76;101861.51;1796430;79;20931;-55
2021/10/08 08:18:49;;;;;;;12.85;4.30;;;;;;;22.24;51.71;101858.73;1784425;79;21184;-56
2021/10/08 08:21:15;;;;;;;11.50;4.42;;;;;;;22.22;51.67;101852.69;1785802;78;21599;-55
2021/10/08 08:23:41;;;;;;;11.60;4.35;;;;;;;22.23;51.65;101857.94;1790143;79;21054;-56
2021/10/08 08:26:07;;;;;;;11.35;4.08;;;;;;;22.23;51.63;101855.73;1790191;79;21259;-56
2021/10/08 08:28:33;;;;;;;12.05;3.87;;;;;;;22.24;51.57;101855.97;1789804;78;20900;-56
2021/10/08 08:30:59;;;;;;;11.10;4.30;;;;;;;22.24;51.54;101850.42;1789538;79;21057;-57
2021/10/08 08:33:26;;;;;;;8.43;3.70;;;;;;;22.24;51.47;101855.97;1787216;79;21956;-56
2021/10/08 08:35:53;;;;;;;9.05;4.03;;;;;;;22.23;51.42;101856.55;1796007;79;21091;-56
2021/10/08 08:38:19;;;;;;;9.63;3.67;;;;;;;22.23;51.36;101857.94;1793272;79;21010;-56
2021/10/08 08:40:45;;;;;;;11.40;4.10;;;;;;;22.22;51.34;101855.46;1792251;79;20966;-56
2021/10/08 08:43:11;;;;;;;11.65;4.42;;;;;;;22.21;51.29;101862.12;1786443;78;20887;-56
2021/10/08 08:45:37;;;;;;;10.63;3.77;;;;;;;22.21;51.27;101860.73;1788590;79;21221;-56
2021/10/08 08:48:07;;;;;;;9.15;3.50;;;;;;;22.21;51.24;101858.79;1789918;79;20899;-56
2021/10/08 08:50:36;;;;;;;8.83;3.42;;;;;;;22.22;51.20;101855.46;1791320;77;21857;-56
2021/10/08 08:53:02;;;;;;;11.80;4.03;;;;;;;22.21;51.17;101858.79;1788112;78;21137;-56
2021/10/08 08:55:28;;;;;;;10.40;4.10;;;;;;;22.21;51.11;101853.25;1795854;79;21046;-56
2021/10/08 08:57:55;;;;;;;7.83;3.72;;;;;;;22.21;51.07;101851.86;1794347;79;20982;-56
2021/10/08 09:00:21;;;;;;;9.18;3.52;;;;;;;22.18;51.02;101846.94;1791544;79;21440;-56
2021/10/08 09:02:56;;;;;;;6.50;2.98;;;;;;;22.19;50.99;101839.44;1793254;79;21907;-56
2021/10/08 09:05:29;;;;;;;10.35;3.98;;;;;;;22.18;50.96;101833.08;1787672;79;21026;-56
2021/10/08 09:07:57;;;;;;;7.42;3.75;;;;;;;22.18;50.93;101820.59;1786819;79;21042;-56
2021/10/08 09:10:27;;;;;;;7.95;3.25;;;;;;;22.19;50.90;101838.86;1787676;79;21074;-55
2021/10/08 09:12:56;;;;;;;8.38;3.45;;;;;;;22.20;50.88;101823.05;1791719;79;21061;-55
2021/10/08 09:15:29;;;;;;;9.50;3.58;;;;;;;22.21;50.83;101837.17;1791158;78;21845;-55
2021/10/08 09:18:09;;;;;;;7.92;3.35;;;;;;;22.18;50.76;101823.37;1790788;79;21008;-56
2021/10/08 09:20:35;;;;;;;6.87;3.08;;;;;;;22.18;50.72;101843.33;1793697;78;21053;-57
2021/10/08 09:23:02;;;;;;;12.10;3.27;;;;;;;22.16;50.67;101832.54;1783431;78;21125;-57
2021/10/08 09:25:33;;;;;;;8.73;3.17;;;;;;;22.15;50.65;101832.86;1781311;79;21231;-57
2021/10/08 09:28:08;;;;;;;6.22;3.35;;;;;;;22.15;50.65;101835.05;1785127;78;21468;-57
2021/10/08 09:30:45;;;;;;;8.18;3.50;;;;;;;22.16;50.62;101846.95;1783187;79;21832;-56
2021/10/08 09:33:14;;;;;;;9.58;3.33;;;;;;;22.17;50.58;101841.68;1794685;78;21047;-56
2021/10/08 09:35:41;;;;;;;8.13;3.17;;;;;;;22.17;50.53;101850.00;1778793;79;21212;-56
2021/10/08 09:38:13;;;;;;;11.90;3.40;;;;;;;22.17;50.45;101844.45;1781315;79;21034;-56
2021/10/08 09:40:56;;;;;;;6.42;2.85;;;;;;;22.17;50.42;101860.52;1782726;79;21107;-56
2021/10/08 09:43:27;;;;;;;7.03;2.58;;;;;;;22.15;50.38;101845.34;1779642;79;21026;-56
2021/10/08 09:45:58;;;;;;;9.08;3.08;;;;;;;22.14;50.36;101848.67;1795631;79;21077;-57
2021/10/08 09:48:41;;;;;;;;;;;;;;;22.14;50.32;101847.84;1785423;79;21564;-57
2021/10/08 09:51:11;;;;;;;8.80;3.35;;;;;;;22.13;50.33;101843.41;1783703;79;20222;-57
2021/10/08 09:53:55;;;;;;;8.40;3.70;;;;;;;22.13;50.33;101853.12;1784282;78;21172;-57
2021/10/08 09:56:39;;;;;;;8.88;3.17;;;;;;;22.13;50.28;101856.72;1790588;79;21434;-57
2021/10/08 09:59:10;;;;;;;9.10;3.70;;;;;;;22.13;50.24;101844.80;1795548;78;21097;-56
2021/10/08 10:01:36;;;;;;;;;;;;;;;22.12;50.19;101863.94;1789723;78;21119;-57
2021/10/08 10:04:05;;;;;;;9.63;3.30;;;;;;;22.11;50.15;101860.89;1796765;78;20494;-57
2021/10/08 10:06:32;;;;;;;6.87;3.20;;;;;;;22.08;50.18;101859.56;1794622;79;39122;-57
2021/10/08 10:09:02;;;;;;;5.78;3.05;;;;;;;22.08;50.15;101857.35;1794869;79;21140;-57
2021/10/08 10:11:26;;;;;;;6.28;2.45;;;;;;;22.07;50.14;101858.47;1780945;79;20983;-56
2021/10/08 10:13:59;;;;;;;9.83;3.37;;;;;;;22.08;50.11;101846.27;1787802;78;21422;-57
2021/10/08 10:16:28;;;;;;;8.05;3.10;;;;;;;22.08;50.08;101836.01;1782574;79;21465;-57
2021/10/08 10:18:56;;;;;;;5.40;2.80;;;;;;;22.10;50.01;101835.72;1784007;79;21421;-57
2021/10/08 10:21:29;;;;;;;8.23;2.92;;;;;;;22.10;49.99;101824.07;1780457;79;21422;-57
2021/10/08 10:23:58;;;;;;;6.60;3.00;;;;;;;22.11;49.92;101822.09;1783809;78;21035;-58
2021/10/08 10:26:27;;;;;;;6.95;2.83;;;;;;;22.09;49.89;101806.34;1785620;79;21536;-57
2021/10/08 10:28:53;;;;;;;5.40;2.67;;;;;;;22.09;49.86;101803.58;1788963;79;21082;-58
2021/10/08 10:31:19;;;;;;;7.95;2.77;;;;;;;22.08;49.83;101799.16;1794397;79;22090;-58
2021/10/08 10:33:45;;;;;;;5.30;2.58;;;;;;;22.08;49.81;101797.77;1791636;79;21441;-58
2021/10/08 10:36:24;;;;;;;5.53;2.70;;;;;;;22.09;49.80;101798.03;1790471;79;20924;-58
2021/10/08 10:38:50;;;;;;;7.22;2.83;;;;;;;22.09;49.75;101786.39;1787277;79;21121;-58
2021/10/08 10:41:20;;;;;;;8.05;2.65;;;;;;;22.11;49.72;101774.42;1790038;79;21071;-55
2021/10/08 10:43:53;;;;;;;7.95;2.70;;;;;;;22.11;49.67;101790.22;1787455;79;21878;-54
2021/10/08 10:52:08;;;;;;;6.62;2.40;;;;;;;22.11;49.52;101784.12;1788504;79;21053;-56
2021/10/08 10:54:53;;;;;;;7.60;2.65;;;;;;;22.11;49.49;101780.52;1789531;79;21458;-55
2021/10/08 10:57:29;;;;;;;8.00;3.00;;;;;;;22.09;49.46;101775.30;1797577;79;21289;-55
2021/10/08 10:59:53;;;;;;;5.50;2.70;;;;;;;22.10;49.44;101788.60;1786194;78;21034;-55
2021/10/08 11:02:25;;;;;;;8.70;3.42;;;;;;;22.10;49.40;101781.67;1788802;79;20903;-55
2021/10/08 11:05:10;;;;;;;6.10;2.42;;;;;;;22.09;49.38;101790.55;1788574;78;21367;-54
2021/10/08 11:07:36;;;;;;;6.15;2.50;;;;;;;22.09;49.33;101789.16;1792763;79;21113;-55
2021/10/08 11:10:13;;;;;;;6.10;2.42;;;;;;;22.08;49.29;101802.75;1790286;79;22878;-55
2021/10/08 11:12:41;;;;;;;7.22;2.90;;;;;;;22.08;49.27;101801.92;1792793;79;21070;-55
2021/10/08 11:15:22;;;;;;;8.68;2.72;;;;;;;22.06;49.25;101809.73;1792258;79;21071;-55
2021/10/08 11:17:57;;;;;;;7.15;3.40;;;;;;;22.06;49.22;101793.11;1790402;78;21125;-55
2021/10/08 11:20:29;;;;;;;4.20;2.10;;;;;;;22.05;49.25;101799.20;1793808;79;21012;-55
2021/10/08 11:23:02;;;;;;;7.47;2.50;;;;;;;22.06;49.22;101794.50;1789460;79;21044;-55
2021/10/08 11:25:29;;;;;;;4.92;2.33;;;;;;;22.06;49.18;101791.16;1794095;79;21075;-55
2021/10/08 11:27:55;;;;;;;7.15;2.55;;;;;;;22.07;49.14;101793.34;1789131;78;21513;-55
2021/10/08 11:30:24;;;;;;;6.05;2.35;;;;;;;22.07;49.09;101782.26;1787112;78;20880;-55